sensor_id;sensor_type;location;lat;lon;timestamp;pressure;altitude;pressure_sealevel;temperature;humidity
6343;BME280;3204;42.698;23.298;2022-12-18T00:01:21;95667.69;;;8.11;93.00
6343;BME280;3204;42.698;23.298;2022-12-18T00:03:48;95676.34;;;8.08;92.21
6343;BME280;3204;42.698;23.298;2022-12-18T00:06:15;95685.78;;;8.15;92.02
6343;BME280;3204;42.698;23.298;2022-12-18T00:08:41;95695.22;;;8.23;91.24
6343;BME280;3204;42.698;23.298;2022-12-18T00:11:09;95694.19;;;8.04;91.97
6343;BME280;3204;42.698;23.298;2022-12-18T00:13:35;95687.19;;;7.98;92.00
6343;BME280;3204;42.698;23.298;2022-12-18T00:16:05;95689.38;;;7.91;92.45
6343;BME280;3204;42.698;23.298;2022-12-18T00:18:31;95689.91;;;7.93;93.17
6343;BME280;3204;42.698;23.298;2022-12-18T00:21:01;95699.88;;;8.02;91.78
6343;BME280;3204;42.698;23.298;2022-12-18T00:23:28;95698.28;;;7.91;92.04
6343;BME280;3204;42.698;23.298;2022-12-18T00:25:54;95703.16;;;7.89;92.45
6343;BME280;3204;42.698;23.298;2022-12-18T00:28:19;95697.78;;;7.79;92.55
6343;BME280;3204;42.698;23.298;2022-12-18T00:30:44;95703.97;;;7.80;92.20
6343;BME280;3204;42.698;23.298;2022-12-18T00:33:10;95703.97;;;7.75;92.33
6343;BME280;3204;42.698;23.298;2022-12-18T00:35:35;95717.47;;;7.80;91.50
6343;BME280;3204;42.698;23.298;2022-12-18T00:38:01;95716.94;;;7.78;90.81
6343;BME280;3204;42.698;23.298;2022-12-18T00:40:27;95720.47;;;7.68;90.59
6343;BME280;3204;42.698;23.298;2022-12-18T00:42:52;95719.41;;;7.64;92.33
6343;BME280;3204;42.698;23.298;2022-12-18T00:45:28;95722.59;;;7.76;90.23
6343;BME280;3204;42.698;23.298;2022-12-18T00:47:54;95723.44;;;7.57;91.66
6343;BME280;3204;42.698;23.298;2022-12-18T00:50:20;95730.19;;;7.59;90.90
6343;BME280;3204;42.698;23.298;2022-12-18T00:52:46;95730.19;;;7.44;91.33
6343;BME280;3204;42.698;23.298;2022-12-18T00:55:11;95733.69;;;7.50;90.90
6343;BME280;3204;42.698;23.298;2022-12-18T00:57:37;95741.53;;;7.61;90.35
6343;BME280;3204;42.698;23.298;2022-12-18T01:00:04;95741.53;;;7.56;90.59
6343;BME280;3204;42.698;23.298;2022-12-18T01:02:30;95743.69;;;7.64;89.49
6343;BME280;3204;42.698;23.298;2022-12-18T01:04:56;95732.59;;;7.46;90.06
6343;BME280;3204;42.698;23.298;2022-12-18T01:07:21;95735.88;;;7.58;90.73
6343;BME280;3204;42.698;23.298;2022-12-18T01:09:47;95742.06;;;7.43;90.38
6343;BME280;3204;42.698;23.298;2022-12-18T01:12:12;95740.97;;;7.29;91.22
6343;BME280;3204;42.698;23.298;2022-12-18T01:14:38;95750.97;;;7.24;91.50
6343;BME280;3204;42.698;23.298;2022-12-18T01:17:04;95745.84;;;7.32;91.13
6343;BME280;3204;42.698;23.298;2022-12-18T01:19:29;95745.00;;;7.32;90.13
6343;BME280;3204;42.698;23.298;2022-12-18T01:21:55;95755.53;;;7.33;90.83
6343;BME280;3204;42.698;23.298;2022-12-18T01:24:21;95761.47;;;7.25;91.10
6343;BME280;3204;42.698;23.298;2022-12-18T01:26:46;95758.25;;;7.33;90.62
6343;BME280;3204;42.698;23.298;2022-12-18T01:29:12;95764.97;;;7.26;90.55
6343;BME280;3204;42.698;23.298;2022-12-18T01:31:37;95766.06;;;7.20;90.14
6343;BME280;3204;42.698;23.298;2022-12-18T01:34:04;95768.75;;;7.10;90.25
6343;BME280;3204;42.698;23.298;2022-12-18T01:36:32;95771.16;;;7.11;90.44
6343;BME280;3204;42.698;23.298;2022-12-18T01:39:04;95765.75;;;7.01;90.93
6343;BME280;3204;42.698;23.298;2022-12-18T01:41:31;95773.81;;;6.91;91.26
6343;BME280;3204;42.698;23.298;2022-12-18T01:45:36;95786.47;;;6.86;91.96
6343;BME280;3204;42.698;23.298;2022-12-18T01:48:06;95789.50;;;7.14;90.60
6343;BME280;3204;42.698;23.298;2022-12-18T01:50:42;95783.00;;;6.95;90.56
6343;BME280;3204;42.698;23.298;2022-12-18T01:53:13;95782.72;;;6.97;90.35
6343;BME280;3204;42.698;23.298;2022-12-18T01:55:46;95789.75;;;7.03;89.95
6343;BME280;3204;42.698;23.298;2022-12-18T01:58:12;95784.59;;;6.91;90.21
6343;BME280;3204;42.698;23.298;2022-12-18T02:00:38;95780.00;;;6.87;90.35
6343;BME280;3204;42.698;23.298;2022-12-18T02:03:04;95780.53;;;6.89;90.34
6343;BME280;3204;42.698;23.298;2022-12-18T02:08:32;95794.50;;;6.71;90.39
6343;BME280;3204;42.698;23.298;2022-12-18T02:16:44;95797.16;;;6.66;90.21
6343;BME280;3204;42.698;23.298;2022-12-18T02:19:27;95807.94;;;6.66;90.38
6343;BME280;3204;42.698;23.298;2022-12-18T02:24:57;95810.06;;;6.54;91.10
6343;BME280;3204;42.698;23.298;2022-12-18T02:27:25;95808.31;;;6.33;91.70
6343;BME280;3204;42.698;23.298;2022-12-18T02:29:53;95809.38;;;6.27;92.04
6343;BME280;3204;42.698;23.298;2022-12-18T02:32:24;95808.31;;;6.33;92.32
6343;BME280;3204;42.698;23.298;2022-12-18T02:34:52;95808.34;;;6.38;92.16
6343;BME280;3204;42.698;23.298;2022-12-18T02:37:21;95809.97;;;6.34;91.93
6343;BME280;3204;42.698;23.298;2022-12-18T02:39:49;95813.78;;;6.43;92.09
6343;BME280;3204;42.698;23.298;2022-12-18T02:42:16;95821.53;;;6.34;91.90
6343;BME280;3204;42.698;23.298;2022-12-18T02:44:50;95813.78;;;6.43;92.30
6343;BME280;3204;42.698;23.298;2022-12-18T02:47:19;95820.72;;;6.29;93.08
6343;BME280;3204;42.698;23.298;2022-12-18T03:00:35;95818.63;;;6.46;92.44
6343;BME280;3204;42.698;23.298;2022-12-18T03:03:09;95821.38;;;6.56;91.76
6343;BME280;3204;42.698;23.298;2022-12-18T03:05:41;95824.06;;;6.51;92.18
6343;BME280;3204;42.698;23.298;2022-12-18T03:08:14;95813.25;;;6.46;92.18
6343;BME280;3204;42.698;23.298;2022-12-18T03:10:46;95818.91;;;6.49;91.45
6343;BME280;3204;42.698;23.298;2022-12-18T03:13:24;95818.63;;;6.46;91.12
6343;BME280;3204;42.698;23.298;2022-12-18T03:15:56;95822.41;;;6.45;90.69
6343;BME280;3204;42.698;23.298;2022-12-18T03:18:30;95831.53;;;6.34;91.43
6343;BME280;3204;42.698;23.298;2022-12-18T03:21:00;95833.69;;;6.42;91.18
6343;BME280;3204;42.698;23.298;2022-12-18T03:23:29;95838.56;;;6.45;90.85
6343;BME280;3204;42.698;23.298;2022-12-18T03:26:01;95841.78;;;6.42;90.86
6343;BME280;3204;42.698;23.298;2022-12-18T03:28:28;95841.25;;;6.40;91.05
6343;BME280;3204;42.698;23.298;2022-12-18T03:30:57;95852.03;;;6.40;91.54
6343;BME280;3204;42.698;23.298;2022-12-18T03:33:30;95837.38;;;6.26;90.86
6343;BME280;3204;42.698;23.298;2022-12-18T03:36:00;95857.47;;;6.50;90.61
6343;BME280;3204;42.698;23.298;2022-12-18T03:38:26;95854.47;;;6.41;89.48
6343;BME280;3204;42.698;23.298;2022-12-18T03:41:30;95855.63;;;6.55;88.14
6343;BME280;3204;42.698;23.298;2022-12-18T03:46:38;95868.13;;;6.30;87.57
6343;BME280;3204;42.698;23.298;2022-12-18T03:49:15;95875.03;;;6.16;88.72
6343;BME280;3204;42.698;23.298;2022-12-18T03:51:49;95882.06;;;6.22;88.19
6343;BME280;3204;42.698;23.298;2022-12-18T03:54:18;95882.31;;;6.20;88.17
6343;BME280;3204;42.698;23.298;2022-12-18T03:57:11;95879.41;;;6.27;89.41
6343;BME280;3204;42.698;23.298;2022-12-18T03:59:39;95890.19;;;6.27;88.87
6343;BME280;3204;42.698;23.298;2022-12-18T04:02:07;95885.53;;;6.17;88.08
6343;BME280;3204;42.698;23.298;2022-12-18T04:04:35;95884.19;;;6.15;88.70
6343;BME280;3204;42.698;23.298;2022-12-18T04:07:03;95880.63;;;6.09;89.42
6343;BME280;3204;42.698;23.298;2022-12-18T04:09:30;95885.25;;;6.19;88.54
6343;BME280;3204;42.698;23.298;2022-12-18T04:11:57;95897.06;;;6.13;88.35
6343;BME280;3204;42.698;23.298;2022-12-18T04:14:22;95898.97;;;6.12;88.61
6343;BME280;3204;42.698;23.298;2022-12-18T04:16:48;95904.13;;;6.19;88.02
6343;BME280;3204;42.698;23.298;2022-12-18T04:19:14;95912.13;;;6.09;87.13
6343;BME280;3204;42.698;23.298;2022-12-18T04:21:39;95906.16;;;6.02;87.65
6343;BME280;3204;42.698;23.298;2022-12-18T04:24:05;95920.66;;;5.96;87.94
6343;BME280;3204;42.698;23.298;2022-12-18T04:26:30;95909.84;;;5.91;87.91
6343;BME280;3204;42.698;23.298;2022-12-18T04:28:56;95923.19;;;6.07;87.90
6343;BME280;3204;42.698;23.298;2022-12-18T04:31:21;95929.13;;;6.14;87.25
6343;BME280;3204;42.698;23.298;2022-12-18T04:33:47;95931.16;;;6.29;86.54
6343;BME280;3204;42.698;23.298;2022-12-18T04:36:12;95936.44;;;6.19;86.07
6343;BME280;3204;42.698;23.298;2022-12-18T04:38:38;95943.72;;;6.18;85.70
6343;BME280;3204;42.698;23.298;2022-12-18T04:41:03;95952.59;;;6.19;85.22
6343;BME280;3204;42.698;23.298;2022-12-18T04:43:29;95956.63;;;6.16;85.99
6343;BME280;3204;42.698;23.298;2022-12-18T04:46:02;95951.69;;;6.03;85.48
6343;BME280;3204;42.698;23.298;2022-12-18T04:48:28;95956.19;;;5.98;85.59
6343;BME280;3204;42.698;23.298;2022-12-18T04:50:54;95964.72;;;5.90;85.39
6343;BME280;3204;42.698;23.298;2022-12-18T04:53:19;95944.22;;;5.84;85.19
6343;BME280;3204;42.698;23.298;2022-12-18T04:55:45;95976.31;;;5.90;85.54
6343;BME280;3204;42.698;23.298;2022-12-18T04:58:10;95984.25;;;6.02;83.65
6343;BME280;3204;42.698;23.298;2022-12-18T05:00:36;95986.88;;;5.97;84.57
6343;BME280;3204;42.698;23.298;2022-12-18T05:03:02;95987.47;;;6.04;83.08
6343;BME280;3204;42.698;23.298;2022-12-18T05:05:27;95971.13;;;5.84;83.79
6343;BME280;3204;42.698;23.298;2022-12-18T05:07:53;95975.00;;;5.93;84.00
6343;BME280;3204;42.698;23.298;2022-12-18T05:10:19;95986.47;;;5.83;83.98
6343;BME280;3204;42.698;23.298;2022-12-18T05:12:44;95992.38;;;5.80;84.39
6343;BME280;3204;42.698;23.298;2022-12-18T05:15:32;95996.09;;;5.79;84.98
6343;BME280;3204;42.698;23.298;2022-12-18T05:17:58;95999.28;;;5.76;84.98
6343;BME280;3204;42.698;23.298;2022-12-18T05:20:24;96004.81;;;5.86;84.89
6343;BME280;3204;42.698;23.298;2022-12-18T05:22:51;96008.88;;;5.89;84.68
6343;BME280;3204;42.698;23.298;2022-12-18T05:25:17;96006.94;;;5.84;85.03
6343;BME280;3204;42.698;23.298;2022-12-18T05:27:42;96010.75;;;5.88;84.92
6343;BME280;3204;42.698;23.298;2022-12-18T05:30:09;96020.63;;;6.04;84.51
6343;BME280;3204;42.698;23.298;2022-12-18T05:32:35;96021.63;;;5.98;83.97
6343;BME280;3204;42.698;23.298;2022-12-18T05:35:00;96023.81;;;5.80;84.87
6343;BME280;3204;42.698;23.298;2022-12-18T05:37:26;96032.59;;;5.92;83.99
6343;BME280;3204;42.698;23.298;2022-12-18T05:39:51;96029.72;;;5.77;84.05
6343;BME280;3204;42.698;23.298;2022-12-18T05:42:17;96041.41;;;5.87;82.80
6343;BME280;3204;42.698;23.298;2022-12-18T05:44:43;96042.97;;;5.83;83.17
6343;BME280;3204;42.698;23.298;2022-12-18T05:47:08;96049.25;;;5.89;82.95
6343;BME280;3204;42.698;23.298;2022-12-18T05:49:34;96052.56;;;5.74;83.53
6343;BME280;3204;42.698;23.298;2022-12-18T05:52:00;96040.97;;;5.74;83.21
6343;BME280;3204;42.698;23.298;2022-12-18T05:54:27;96046.53;;;5.67;83.30
6343;BME280;3204;42.698;23.298;2022-12-18T05:56:54;96052.13;;;5.61;83.69
6343;BME280;3204;42.698;23.298;2022-12-18T05:59:19;96055.75;;;5.71;83.90
6343;BME280;3204;42.698;23.298;2022-12-18T06:01:45;96045.47;;;5.68;83.64
6343;BME280;3204;42.698;23.298;2022-12-18T06:04:11;96067.06;;;5.73;83.74
6343;BME280;3204;42.698;23.298;2022-12-18T06:06:37;96071.66;;;5.73;83.67
6343;BME280;3204;42.698;23.298;2022-12-18T06:09:03;96077.03;;;5.73;83.61
6343;BME280;3204;42.698;23.298;2022-12-18T06:11:37;96063.75;;;5.66;83.36
6343;BME280;3204;42.698;23.298;2022-12-18T06:14:04;96068.44;;;5.76;82.99
6343;BME280;3204;42.698;23.298;2022-12-18T06:16:30;96064.31;;;5.68;83.38
6343;BME280;3204;42.698;23.298;2022-12-18T06:19:00;96069.91;;;5.83;82.85
6343;BME280;3204;42.698;23.298;2022-12-18T06:21:27;96070.84;;;5.94;82.86
6343;BME280;3204;42.698;23.298;2022-12-18T06:23:52;96078.72;;;5.79;83.07
6343;BME280;3204;42.698;23.298;2022-12-18T06:26:18;96071.66;;;5.73;82.80
6343;BME280;3204;42.698;23.298;2022-12-18T06:28:43;96083.66;;;5.65;83.51
6343;BME280;3204;42.698;23.298;2022-12-18T06:31:09;96085.03;;;5.68;82.96
6343;BME280;3204;42.698;23.298;2022-12-18T06:33:35;96087.16;;;5.66;83.30
6343;BME280;3204;42.698;23.298;2022-12-18T06:36:09;96085.84;;;5.68;83.48
6343;BME280;3204;42.698;23.298;2022-12-18T06:38:36;96090.44;;;5.68;83.03
6343;BME280;3204;42.698;23.298;2022-12-18T06:41:12;96090.91;;;5.65;83.94
6343;BME280;3204;42.698;23.298;2022-12-18T06:43:38;96109.16;;;5.79;83.77
6343;BME280;3204;42.698;23.298;2022-12-18T06:46:04;96108.25;;;5.74;82.90
6343;BME280;3204;42.698;23.298;2022-12-18T06:48:30;96104.63;;;5.63;83.27
6343;BME280;3204;42.698;23.298;2022-12-18T06:50:56;96114.72;;;5.73;83.80
6343;BME280;3204;42.698;23.298;2022-12-18T06:53:22;96116.81;;;5.71;83.42
6343;BME280;3204;42.698;23.298;2022-12-18T06:55:49;96123.56;;;5.90;82.13
6343;BME280;3204;42.698;23.298;2022-12-18T06:58:15;96116.84;;;5.92;79.64
6343;BME280;3204;42.698;23.298;2022-12-18T07:00:40;96135.09;;;5.85;79.89
6343;BME280;3204;42.698;23.298;2022-12-18T07:03:06;96133.38;;;5.79;79.05
6343;BME280;3204;42.698;23.298;2022-12-18T07:05:31;96123.75;;;5.67;79.29
6343;BME280;3204;42.698;23.298;2022-12-18T07:07:57;96120.59;;;5.70;79.29
6343;BME280;3204;42.698;23.298;2022-12-18T07:10:23;96128.53;;;5.60;80.09
6343;BME280;3204;42.698;23.298;2022-12-18T07:12:48;96131.22;;;5.60;80.50
6343;BME280;3204;42.698;23.298;2022-12-18T07:15:14;96136.78;;;5.53;81.53
6343;BME280;3204;42.698;23.298;2022-12-18T07:17:39;96139.72;;;5.52;80.92
6343;BME280;3204;42.698;23.298;2022-12-18T07:20:05;96137.59;;;5.54;81.54
6343;BME280;3204;42.698;23.298;2022-12-18T07:22:32;96133.34;;;5.58;81.38
6343;BME280;3204;42.698;23.298;2022-12-18T07:24:57;96139.53;;;5.58;81.18
6343;BME280;3204;42.698;23.298;2022-12-18T07:27:23;96137.97;;;5.62;81.21
6343;BME280;3204;42.698;23.298;2022-12-18T07:29:50;96133.19;;;5.48;81.70
6343;BME280;3204;42.698;23.298;2022-12-18T07:32:15;96134.97;;;5.59;81.20
6343;BME280;3204;42.698;23.298;2022-12-18T07:34:42;96142.66;;;5.50;81.69
6343;BME280;3204;42.698;23.298;2022-12-18T07:37:07;96134.50;;;5.45;81.98
6343;BME280;3204;42.698;23.298;2022-12-18T07:39:33;96151.28;;;5.52;82.14
6343;BME280;3204;42.698;23.298;2022-12-18T07:41:59;96159.69;;;5.56;81.17
6343;BME280;3204;42.698;23.298;2022-12-18T07:44:43;96157.50;;;5.53;81.96
6343;BME280;3204;42.698;23.298;2022-12-18T07:47:08;96158.16;;;5.43;82.27
6343;BME280;3204;42.698;23.298;2022-12-18T07:49:34;96152.13;;;5.53;81.83
6343;BME280;3204;42.698;23.298;2022-12-18T07:51:59;96153.75;;;5.54;82.09
6343;BME280;3204;42.698;23.298;2022-12-18T07:54:25;96158.00;;;5.50;82.41
6343;BME280;3204;42.698;23.298;2022-12-18T07:56:51;96166.06;;;5.33;82.45
6343;BME280;3204;42.698;23.298;2022-12-18T07:59:17;96173.31;;;5.49;82.57
6343;BME280;3204;42.698;23.298;2022-12-18T08:01:43;96180.06;;;5.52;82.27
6343;BME280;3204;42.698;23.298;2022-12-18T08:04:09;96171.66;;;5.65;87.17
6343;BME280;3204;42.698;23.298;2022-12-18T08:06:35;96170.81;;;5.64;82.86
6343;BME280;3204;42.698;23.298;2022-12-18T08:09:00;96177.34;;;5.68;82.01
6343;BME280;3204;42.698;23.298;2022-12-18T08:11:27;96178.19;;;5.52;82.83
6343;BME280;3204;42.698;23.298;2022-12-18T08:13:54;96188.13;;;5.52;82.58
6343;BME280;3204;42.698;23.298;2022-12-18T08:16:20;96192.78;;;5.56;82.63
6343;BME280;3204;42.698;23.298;2022-12-18T08:18:46;96193.53;;;5.52;82.18
6343;BME280;3204;42.698;23.298;2022-12-18T08:21:14;96201.75;;;5.45;82.80
6343;BME280;3204;42.698;23.298;2022-12-18T08:23:41;96207.72;;;5.47;81.78
6343;BME280;3204;42.698;23.298;2022-12-18T08:26:06;96215.31;;;5.50;81.71
6343;BME280;3204;42.698;23.298;2022-12-18T08:28:32;96215.03;;;5.52;81.48
6343;BME280;3204;42.698;23.298;2022-12-18T08:30:58;96210.41;;;5.64;80.83
6343;BME280;3204;42.698;23.298;2022-12-18T08:33:23;96225.22;;;5.66;80.51
6343;BME280;3204;42.698;23.298;2022-12-18T08:35:49;96220.34;;;5.63;80.95
6343;BME280;3204;42.698;23.298;2022-12-18T08:38:14;96202.84;;;5.99;87.79
6343;BME280;3204;42.698;23.298;2022-12-18T08:40:40;96220.00;;;6.14;80.09
6343;BME280;3204;42.698;23.298;2022-12-18T08:43:06;96228.13;;;5.98;79.50
6343;BME280;3204;42.698;23.298;2022-12-18T08:45:51;96229.03;;;6.03;79.34
6343;BME280;3204;42.698;23.298;2022-12-18T08:48:16;96229.34;;;6.07;78.88
6343;BME280;3204;42.698;23.298;2022-12-18T08:50:42;96237.94;;;5.87;79.67
6343;BME280;3204;42.698;23.298;2022-12-18T08:53:07;96227.09;;;5.82;79.26
6343;BME280;3204;42.698;23.298;2022-12-18T08:55:34;96227.81;;;5.78;79.37
6343;BME280;3204;42.698;23.298;2022-12-18T08:57:59;96234.94;;;5.84;77.60
6343;BME280;3204;42.698;23.298;2022-12-18T09:00:25;96239.31;;;5.73;78.36
6343;BME280;3204;42.698;23.298;2022-12-18T09:02:51;96239.66;;;5.77;77.62
6343;BME280;3204;42.698;23.298;2022-12-18T09:05:16;96241.28;;;5.78;77.38
6343;BME280;3204;42.698;23.298;2022-12-18T09:07:42;96232.91;;;5.74;77.16
6343;BME280;3204;42.698;23.298;2022-12-18T09:10:08;96234.84;;;5.95;76.52
6343;BME280;3204;42.698;23.298;2022-12-18T09:12:33;96234.69;;;5.85;76.93
6343;BME280;3204;42.698;23.298;2022-12-18T09:14:58;96233.31;;;5.83;77.72
6343;BME280;3204;42.698;23.298;2022-12-18T09:17:24;96236.06;;;5.88;77.33
6343;BME280;3204;42.698;23.298;2022-12-18T09:19:50;96241.22;;;5.89;76.86
6343;BME280;3204;42.698;23.298;2022-12-18T09:22:15;96234.44;;;5.87;76.77
6343;BME280;3204;42.698;23.298;2022-12-18T09:24:41;96230.75;;;5.93;76.47
6343;BME280;3204;42.698;23.298;2022-12-18T09:27:06;96225.63;;;5.91;76.67
6343;BME280;3204;42.698;23.298;2022-12-18T09:29:32;96235.72;;;6.01;75.85
6343;BME280;3204;42.698;23.298;2022-12-18T09:31:58;96232.22;;;6.00;74.80
6343;BME280;3204;42.698;23.298;2022-12-18T09:34:23;96225.56;;;6.08;76.20
6343;BME280;3204;42.698;23.298;2022-12-18T09:36:49;96229.47;;;6.17;75.29
6343;BME280;3204;42.698;23.298;2022-12-18T09:39:15;96234.38;;;6.20;75.20
6343;BME280;3204;42.698;23.298;2022-12-18T09:41:53;96233.06;;;6.22;75.94
6343;BME280;3204;42.698;23.298;2022-12-18T09:44:41;96236.78;;;6.21;75.58
6343;BME280;3204;42.698;23.298;2022-12-18T09:47:16;96233.97;;;6.33;75.80
6343;BME280;3204;42.698;23.298;2022-12-18T09:49:45;96241.88;;;6.39;75.52
6343;BME280;3204;42.698;23.298;2022-12-18T09:52:19;96225.34;;;6.31;74.65
6343;BME280;3204;42.698;23.298;2022-12-18T09:54:51;96234.50;;;6.30;74.24
6343;BME280;3204;42.698;23.298;2022-12-18T09:57:22;96231.22;;;6.28;74.14
6343;BME280;3204;42.698;23.298;2022-12-18T09:59:57;96236.66;;;6.33;74.16
6343;BME280;3204;42.698;23.298;2022-12-18T10:02:25;96234.91;;;6.22;74.28
6343;BME280;3204;42.698;23.298;2022-12-18T10:05:10;96222.09;;;6.29;73.44
6343;BME280;3204;42.698;23.298;2022-12-18T10:10:46;96242.81;;;6.28;73.79
6343;BME280;3204;42.698;23.298;2022-12-18T10:13:42;96233.47;;;6.36;73.32
6343;BME280;3204;42.698;23.298;2022-12-18T10:16:19;96231.69;;;6.41;72.92
6343;BME280;3204;42.698;23.298;2022-12-18T10:19:01;96240.13;;;6.50;72.30
6343;BME280;3204;42.698;23.298;2022-12-18T10:21:36;96236.28;;;6.46;72.99
6343;BME280;3204;42.698;23.298;2022-12-18T10:26:41;96236.88;;;6.48;73.84
6343;BME280;3204;42.698;23.298;2022-12-18T10:29:12;96230.28;;;6.60;73.03
6343;BME280;3204;42.698;23.298;2022-12-18T10:31:38;96237.50;;;6.55;72.50
6343;BME280;3204;42.698;23.298;2022-12-18T10:34:04;96241.38;;;6.64;72.74
6343;BME280;3204;42.698;23.298;2022-12-18T10:36:32;96238.25;;;6.72;71.85
6343;BME280;3204;42.698;23.298;2022-12-18T10:41:41;96231.97;;;6.66;73.28
6343;BME280;3204;42.698;23.298;2022-12-18T10:44:23;96238.91;;;6.62;72.98
6343;BME280;3204;42.698;23.298;2022-12-18T10:47:03;96232.00;;;6.71;72.18
6343;BME280;3204;42.698;23.298;2022-12-18T10:49:31;96221.34;;;6.81;72.33
6343;BME280;3204;42.698;23.298;2022-12-18T10:52:24;96231.94;;;6.88;71.78
6343;BME280;3204;42.698;23.298;2022-12-18T10:55:02;96234.56;;;6.83;72.90
6343;BME280;3204;42.698;23.298;2022-12-18T10:57:39;96218.75;;;6.91;71.19
6343;BME280;3204;42.698;23.298;2022-12-18T11:00:26;96229.28;;;6.93;71.70
6343;BME280;3204;42.698;23.298;2022-12-18T11:02:53;96226.69;;;7.03;71.89
6343;BME280;3204;42.698;23.298;2022-12-18T11:05:32;96224.50;;;7.00;70.33
6343;BME280;3204;42.698;23.298;2022-12-18T11:08:00;96229.31;;;6.98;71.26
6343;BME280;3204;42.698;23.298;2022-12-18T11:10:46;96240.50;;;7.11;69.92
6343;BME280;3204;42.698;23.298;2022-12-18T11:13:22;96235.53;;;6.98;70.11
6343;BME280;3204;42.698;23.298;2022-12-18T11:15:49;96238.03;;;7.05;70.31
6343;BME280;3204;42.698;23.298;2022-12-18T11:18:31;96244.66;;;7.19;69.47
6343;BME280;3204;42.698;23.298;2022-12-18T11:21:06;96232.41;;;7.11;70.47
6343;BME280;3204;42.698;23.298;2022-12-18T11:23:33;96236.00;;;7.17;70.57
6343;BME280;3204;42.698;23.298;2022-12-18T11:26:01;96239.75;;;7.16;69.83
6343;BME280;3204;42.698;23.298;2022-12-18T11:28:37;96243.31;;;7.21;71.14
6343;BME280;3204;42.698;23.298;2022-12-18T11:33:56;96234.75;;;7.29;69.91
6343;BME280;3204;42.698;23.298;2022-12-18T11:36:23;96241.09;;;7.13;70.07
6343;BME280;3204;42.698;23.298;2022-12-18T11:38:52;96230.50;;;7.07;70.70
6343;BME280;3204;42.698;23.298;2022-12-18T11:41:30;96231.91;;;7.14;70.27
6343;BME280;3204;42.698;23.298;2022-12-18T11:44:26;96244.53;;;7.09;69.49
6343;BME280;3204;42.698;23.298;2022-12-18T11:47:03;96237.88;;;6.90;69.78
6343;BME280;3204;42.698;23.298;2022-12-18T11:49:34;96231.03;;;6.82;69.94
6343;BME280;3204;42.698;23.298;2022-12-18T11:54:44;96241.38;;;6.90;70.21
6343;BME280;3204;42.698;23.298;2022-12-18T11:57:35;96236.91;;;7.01;70.38
6343;BME280;3204;42.698;23.298;2022-12-18T12:00:15;96223.63;;;6.94;70.83
6343;BME280;3204;42.698;23.298;2022-12-18T12:03:05;96230.91;;;6.94;71.00
6343;BME280;3204;42.698;23.298;2022-12-18T12:06:02;96227.97;;;6.95;70.88
6343;BME280;3204;42.698;23.298;2022-12-18T12:17:19;96220.94;;;6.94;71.87
6343;BME280;3204;42.698;23.298;2022-12-18T12:28:19;96227.50;;;7.03;71.70
6343;BME280;3204;42.698;23.298;2022-12-18T12:30:58;96229.94;;;7.05;71.45
6343;BME280;3204;42.698;23.298;2022-12-18T12:33:41;96243.94;;;7.02;70.61
6343;BME280;3204;42.698;23.298;2022-12-18T12:38:52;96237.75;;;7.06;70.50
6343;BME280;3204;42.698;23.298;2022-12-18T12:41:23;96240.47;;;7.06;71.07
6343;BME280;3204;42.698;23.298;2022-12-18T12:44:14;96236.63;;;6.97;71.52
6343;BME280;3204;42.698;23.298;2022-12-18T12:46:42;96234.28;;;7.06;71.35
6343;BME280;3204;42.698;23.298;2022-12-18T12:49:17;96237.50;;;7.08;71.10
6343;BME280;3204;42.698;23.298;2022-12-18T12:51:47;96236.72;;;7.07;71.13
6343;BME280;3204;42.698;23.298;2022-12-18T12:54:19;96247.81;;;7.11;71.11
6343;BME280;3204;42.698;23.298;2022-12-18T12:56:51;96247.84;;;7.16;70.20
6343;BME280;3204;42.698;23.298;2022-12-18T13:05:02;96256.03;;;6.99;70.02
6343;BME280;3204;42.698;23.298;2022-12-18T13:07:39;96248.78;;;7.00;70.58
6343;BME280;3204;42.698;23.298;2022-12-18T13:13:11;96257.66;;;6.74;70.71
6343;BME280;3204;42.698;23.298;2022-12-18T13:15:46;96271.19;;;6.79;70.97
6343;BME280;3204;42.698;23.298;2022-12-18T13:18:23;96266.69;;;6.84;71.12
6343;BME280;3204;42.698;23.298;2022-12-18T13:21:17;96271.69;;;6.76;71.19
6343;BME280;3204;42.698;23.298;2022-12-18T13:23:45;96277.66;;;6.78;71.18
6343;BME280;3204;42.698;23.298;2022-12-18T13:34:16;96278.91;;;6.70;71.88
6343;BME280;3204;42.698;23.298;2022-12-18T13:36:42;96278.09;;;6.70;71.17
6343;BME280;3204;42.698;23.298;2022-12-18T13:39:21;96276.78;;;6.72;72.37
6343;BME280;3204;42.698;23.298;2022-12-18T13:44:37;96269.28;;;6.74;72.24
6343;BME280;3204;42.698;23.298;2022-12-18T13:47:26;96276.59;;;6.79;71.94
6343;BME280;3204;42.698;23.298;2022-12-18T13:49:54;96290.13;;;6.84;72.52
6343;BME280;3204;42.698;23.298;2022-12-18T13:52:28;96291.19;;;6.83;71.83
6343;BME280;3204;42.698;23.298;2022-12-18T13:54:59;96292.16;;;6.72;72.12
6343;BME280;3204;42.698;23.298;2022-12-18T13:57:35;96300.31;;;6.77;72.62
6343;BME280;3204;42.698;23.298;2022-12-18T14:02:47;96300.97;;;6.89;70.93
6343;BME280;3204;42.698;23.298;2022-12-18T14:07:49;96310.50;;;6.75;70.85
6343;BME280;3204;42.698;23.298;2022-12-18T14:10:15;96306.25;;;6.79;69.67
6343;BME280;3204;42.698;23.298;2022-12-18T14:12:45;96310.44;;;6.70;68.96
6343;BME280;3204;42.698;23.298;2022-12-18T14:15:33;96310.38;;;6.65;69.25
6343;BME280;3204;42.698;23.298;2022-12-18T14:20:54;96317.56;;;6.38;70.26
6343;BME280;3204;42.698;23.298;2022-12-18T14:25:54;96322.53;;;6.46;70.18
6343;BME280;3204;42.698;23.298;2022-12-18T14:28:19;96324.09;;;6.42;69.87
6343;BME280;3204;42.698;23.298;2022-12-18T14:30:47;96325.69;;;6.59;69.27
6343;BME280;3204;42.698;23.298;2022-12-18T14:35:53;96331.13;;;6.43;68.56
6343;BME280;3204;42.698;23.298;2022-12-18T14:41:00;96324.91;;;6.42;68.98
6343;BME280;3204;42.698;23.298;2022-12-18T14:43:27;96325.16;;;6.41;68.68
6343;BME280;3204;42.698;23.298;2022-12-18T14:45:54;96323.91;;;6.48;67.83
6343;BME280;3204;42.698;23.298;2022-12-18T14:50:58;96330.38;;;6.47;67.72
6343;BME280;3204;42.698;23.298;2022-12-18T14:53:35;96335.06;;;6.57;67.33
6343;BME280;3204;42.698;23.298;2022-12-18T14:56:02;96332.69;;;6.39;66.83
6343;BME280;3204;42.698;23.298;2022-12-18T14:58:28;96338.81;;;6.34;66.07
6343;BME280;3204;42.698;23.298;2022-12-18T15:00:54;96338.50;;;6.31;66.51
6343;BME280;3204;42.698;23.298;2022-12-18T15:03:21;96334.38;;;6.07;66.84
6343;BME280;3204;42.698;23.298;2022-12-18T15:05:47;96337.16;;;5.95;67.73
6343;BME280;3204;42.698;23.298;2022-12-18T15:08:29;96334.78;;;5.99;67.93
6343;BME280;3204;42.698;23.298;2022-12-18T15:10:55;96342.22;;;6.08;66.87
6343;BME280;3204;42.698;23.298;2022-12-18T15:13:23;96336.25;;;6.06;67.07